sensor_id;sensor_type;location;lat;lon;timestamp;temperature;humidity
21635;DHT22;10979;48.306;9.830;2022-12-19T00:02:11;-4.60;99.90
21635;DHT22;10979;48.306;9.830;2022-12-19T00:04:37;-4.50;99.90
21635;DHT22;10979;48.306;9.830;2022-12-19T00:07:02;-4.60;99.90
21635;DHT22;10979;48.306;9.830;2022-12-19T00:09:28;-4.60;99.90
21635;DHT22;10979;48.306;9.830;2022-12-19T00:11:53;-4.70;99.90
21635;DHT22;10979;48.306;9.830;2022-12-19T00:14:19;-4.80;99.90
21635;DHT22;10979;48.306;9.830;2022-12-19T00:16:45;-4.70;99.90
21635;DHT22;10979;48.306;9.830;2022-12-19T00:19:11;-4.70;99.90
21635;DHT22;10979;48.306;9.830;2022-12-19T00:21:36;-4.60;99.90
21635;DHT22;10979;48.306;9.830;2022-12-19T00:24:06;-4.60;99.90
21635;DHT22;10979;48.306;9.830;2022-12-19T00:26:34;-4.50;99.90
21635;DHT22;10979;48.306;9.830;2022-12-19T00:29:03;-4.60;99.90
21635;DHT22;10979;48.306;9.830;2022-12-19T00:31:33;-4.60;99.90
21635;DHT22;10979;48.306;9.830;2022-12-19T00:34:00;-4.70;99.90
21635;DHT22;10979;48.306;9.830;2022-12-19T00:36:31;-4.60;99.90
21635;DHT22;10979;48.306;9.830;2022-12-19T00:38:59;-4.60;99.90
21635;DHT22;10979;48.306;9.830;2022-12-19T00:41:29;-4.60;99.90
21635;DHT22;10979;48.306;9.830;2022-12-19T00:44:08;-4.50;99.90
21635;DHT22;10979;48.306;9.830;2022-12-19T00:46:34;-4.50;99.90
21635;DHT22;10979;48.306;9.830;2022-12-19T00:49:01;-4.50;99.90
21635;DHT22;10979;48.306;9.830;2022-12-19T00:51:29;-4.50;99.90
21635;DHT22;10979;48.306;9.830;2022-12-19T00:53:56;-4.40;99.90
21635;DHT22;10979;48.306;9.830;2022-12-19T00:56:25;-4.40;99.90
21635;DHT22;10979;48.306;9.830;2022-12-19T00:58:51;-4.50;99.90
21635;DHT22;10979;48.306;9.830;2022-12-19T01:01:29;-4.40;99.90
21635;DHT22;10979;48.306;9.830;2022-12-19T01:03:57;-4.40;99.90
21635;DHT22;10979;48.306;9.830;2022-12-19T01:06:23;-4.50;99.90
21635;DHT22;10979;48.306;9.830;2022-12-19T01:08:49;-4.60;99.90
21635;DHT22;10979;48.306;9.830;2022-12-19T01:11:15;-4.60;99.90
21635;DHT22;10979;48.306;9.830;2022-12-19T01:13:40;-4.70;99.90
21635;DHT22;10979;48.306;9.830;2022-12-19T01:16:11;-4.80;99.90
21635;DHT22;10979;48.306;9.830;2022-12-19T01:18:38;-5.00;99.90
21635;DHT22;10979;48.306;9.830;2022-12-19T01:21:06;-5.00;99.90
21635;DHT22;10979;48.306;9.830;2022-12-19T01:23:33;-5.10;99.90
21635;DHT22;10979;48.306;9.830;2022-12-19T01:25:59;-5.20;99.90
21635;DHT22;10979;48.306;9.830;2022-12-19T01:28:25;-5.10;99.90
21635;DHT22;10979;48.306;9.830;2022-12-19T01:30:51;-5.10;99.90
21635;DHT22;10979;48.306;9.830;2022-12-19T01:33:17;-5.00;99.90
21635;DHT22;10979;48.306;9.830;2022-12-19T01:35:46;-5.00;99.90
21635;DHT22;10979;48.306;9.830;2022-12-19T01:38:14;-4.90;99.90
21635;DHT22;10979;48.306;9.830;2022-12-19T01:40:48;-4.80;99.90
21635;DHT22;10979;48.306;9.830;2022-12-19T01:43:14;-4.60;99.90
21635;DHT22;10979;48.306;9.830;2022-12-19T01:45:41;-4.60;99.90
21635;DHT22;10979;48.306;9.830;2022-12-19T01:48:14;-4.50;99.90
21635;DHT22;10979;48.306;9.830;2022-12-19T01:50:53;-4.60;99.90
21635;DHT22;10979;48.306;9.830;2022-12-19T01:53:22;-4.60;99.90
21635;DHT22;10979;48.306;9.830;2022-12-19T01:55:50;-4.50;99.90
21635;DHT22;10979;48.306;9.830;2022-12-19T01:58:16;-4.50;99.90
21635;DHT22;10979;48.306;9.830;2022-12-19T02:00:43;-4.50;99.90
21635;DHT22;10979;48.306;9.830;2022-12-19T02:03:28;-4.40;99.90
21635;DHT22;10979;48.306;9.830;2022-12-19T02:05:57;-4.40;99.90
21635;DHT22;10979;48.306;9.830;2022-12-19T02:08:24;-4.40;99.90
21635;DHT22;10979;48.306;9.830;2022-12-19T02:10:50;-4.30;99.90
21635;DHT22;10979;48.306;9.830;2022-12-19T02:13:16;-4.30;99.90
21635;DHT22;10979;48.306;9.830;2022-12-19T02:32:03;-4.20;99.90
21635;DHT22;10979;48.306;9.830;2022-12-19T02:35:12;-4.20;99.90
21635;DHT22;10979;48.306;9.830;2022-12-19T02:37:35;-4.20;99.90
21635;DHT22;10979;48.306;9.830;2022-12-19T02:40:28;-4.20;99.90
21635;DHT22;10979;48.306;9.830;2022-12-19T02:42:58;-4.10;99.90
21635;DHT22;10979;48.306;9.830;2022-12-19T02:45:32;-4.10;99.90
21635;DHT22;10979;48.306;9.830;2022-12-19T02:48:00;-4.10;99.90
21635;DHT22;10979;48.306;9.830;2022-12-19T02:50:44;-4.10;99.90
21635;DHT22;10979;48.306;9.830;2022-12-19T02:53:11;-4.00;99.90
21635;DHT22;10979;48.306;9.830;2022-12-19T02:55:48;-4.00;99.90
21635;DHT22;10979;48.306;9.830;2022-12-19T02:58:26;-4.00;99.90
21635;DHT22;10979;48.306;9.830;2022-12-19T03:01:01;-4.00;99.90
21635;DHT22;10979;48.306;9.830;2022-12-19T03:03:41;-4.00;99.90
21635;DHT22;10979;48.306;9.830;2022-12-19T03:06:19;-4.00;99.90
21635;DHT22;10979;48.306;9.830;2022-12-19T03:08:54;-4.00;99.90
21635;DHT22;10979;48.306;9.830;2022-12-19T03:11:28;-4.00;99.90
21635;DHT22;10979;48.306;9.830;2022-12-19T03:13:58;-4.00;99.90
21635;DHT22;10979;48.306;9.830;2022-12-19T03:16:25;-3.90;99.90
21635;DHT22;10979;48.306;9.830;2022-12-19T03:18:53;-3.90;99.90
21635;DHT22;10979;48.306;9.830;2022-12-19T03:21:31;-3.80;99.90
21635;DHT22;10979;48.306;9.830;2022-12-19T03:23:59;-3.90;99.90
21635;DHT22;10979;48.306;9.830;2022-12-19T03:26:27;-3.90;99.90
21635;DHT22;10979;48.306;9.830;2022-12-19T03:29:03;-3.80;99.90
21635;DHT22;10979;48.306;9.830;2022-12-19T03:31:33;-3.80;99.90
21635;DHT22;10979;48.306;9.830;2022-12-19T03:34:02;-3.80;99.90
21635;DHT22;10979;48.306;9.830;2022-12-19T03:36:33;-3.70;99.90
21635;DHT22;10979;48.306;9.830;2022-12-19T03:39:03;-3.70;99.90
21635;DHT22;10979;48.306;9.830;2022-12-19T03:41:30;-3.70;99.90
21635;DHT22;10979;48.306;9.830;2022-12-19T03:44:16;-3.70;99.90
21635;DHT22;10979;48.306;9.830;2022-12-19T03:46:50;-3.70;99.90
21635;DHT22;10979;48.306;9.830;2022-12-19T03:49:18;-3.60;99.90
21635;DHT22;10979;48.306;9.830;2022-12-19T03:54:53;-3.50;99.90
21635;DHT22;10979;48.306;9.830;2022-12-19T03:57:29;-3.50;99.90
21635;DHT22;10979;48.306;9.830;2022-12-19T04:00:06;-3.50;99.90
21635;DHT22;10979;48.306;9.830;2022-12-19T04:02:35;-3.50;99.90
21635;DHT22;10979;48.306;9.830;2022-12-19T04:05:08;-3.40;99.90
21635;DHT22;10979;48.306;9.830;2022-12-19T04:07:36;-3.50;99.90
21635;DHT22;10979;48.306;9.830;2022-12-19T04:10:09;-3.50;99.90
21635;DHT22;10979;48.306;9.830;2022-12-19T04:12:38;-3.40;99.90
21635;DHT22;10979;48.306;9.830;2022-12-19T04:15:06;-3.40;99.90
21635;DHT22;10979;48.306;9.830;2022-12-19T04:20:13;-3.30;99.90
21635;DHT22;10979;48.306;9.830;2022-12-19T04:25:31;-3.20;99.90
21635;DHT22;10979;48.306;9.830;2022-12-19T04:28:03;-3.10;99.90
21635;DHT22;10979;48.306;9.830;2022-12-19T04:30:31;-3.20;99.90
21635;DHT22;10979;48.306;9.830;2022-12-19T04:32:58;-3.20;99.90
21635;DHT22;10979;48.306;9.830;2022-12-19T04:35:24;-3.10;99.90
21635;DHT22;10979;48.306;9.830;2022-12-19T04:37:50;-3.00;99.90
21635;DHT22;10979;48.306;9.830;2022-12-19T04:40:16;-3.00;99.90
21635;DHT22;10979;48.306;9.830;2022-12-19T04:42:42;-3.00;99.90
21635;DHT22;10979;48.306;9.830;2022-12-19T04:45:08;-2.90;99.90
21635;DHT22;10979;48.306;9.830;2022-12-19T04:47:33;-2.90;99.90
21635;DHT22;10979;48.306;9.830;2022-12-19T04:49:59;-2.90;99.90
21635;DHT22;10979;48.306;9.830;2022-12-19T04:52:24;-2.90;99.90
21635;DHT22;10979;48.306;9.830;2022-12-19T04:54:50;-2.80;99.90
21635;DHT22;10979;48.306;9.830;2022-12-19T04:57:15;-2.70;99.90
21635;DHT22;10979;48.306;9.830;2022-12-19T04:59:41;-2.70;99.90
21635;DHT22;10979;48.306;9.830;2022-12-19T05:02:06;-2.70;99.90
21635;DHT22;10979;48.306;9.830;2022-12-19T05:04:32;-2.60;99.90
21635;DHT22;10979;48.306;9.830;2022-12-19T05:06:58;-2.60;99.90
21635;DHT22;10979;48.306;9.830;2022-12-19T05:09:24;-2.60;99.90
21635;DHT22;10979;48.306;9.830;2022-12-19T05:11:50;-2.60;99.90
21635;DHT22;10979;48.306;9.830;2022-12-19T05:14:15;-2.50;99.90
21635;DHT22;10979;48.306;9.830;2022-12-19T05:16:41;-2.50;99.90
21635;DHT22;10979;48.306;9.830;2022-12-19T05:19:07;-2.40;99.90
21635;DHT22;10979;48.306;9.830;2022-12-19T05:21:32;-2.40;99.90
21635;DHT22;10979;48.306;9.830;2022-12-19T05:23:58;-2.30;99.90
21635;DHT22;10979;48.306;9.830;2022-12-19T05:26:24;-2.30;99.90
21635;DHT22;10979;48.306;9.830;2022-12-19T05:28:50;-2.30;99.90
21635;DHT22;10979;48.306;9.830;2022-12-19T05:31:17;-2.20;99.90
21635;DHT22;10979;48.306;9.830;2022-12-19T05:33:44;-2.20;99.90
21635;DHT22;10979;48.306;9.830;2022-12-19T05:36:11;-2.10;99.90
21635;DHT22;10979;48.306;9.830;2022-12-19T05:38:37;-2.10;99.90
21635;DHT22;10979;48.306;9.830;2022-12-19T05:41:14;-2.10;99.90
21635;DHT22;10979;48.306;9.830;2022-12-19T05:43:40;-2.10;99.90
21635;DHT22;10979;48.306;9.830;2022-12-19T05:46:06;-2.10;99.90
21635;DHT22;10979;48.306;9.830;2022-12-19T05:48:33;-2.10;99.90
21635;DHT22;10979;48.306;9.830;2022-12-19T05:50:58;-2.10;99.90
21635;DHT22;10979;48.306;9.830;2022-12-19T05:53:24;-2.10;99.90
21635;DHT22;10979;48.306;9.830;2022-12-19T05:56:02;-2.10;99.90
21635;DHT22;10979;48.306;9.830;2022-12-19T05:58:28;-2.10;99.90
21635;DHT22;10979;48.306;9.830;2022-12-19T06:00:53;-2.10;99.90
21635;DHT22;10979;48.306;9.830;2022-12-19T06:03:19;-2.10;99.90
21635;DHT22;10979;48.306;9.830;2022-12-19T06:05:44;-2.00;99.90
21635;DHT22;10979;48.306;9.830;2022-12-19T06:08:10;-2.00;99.90
21635;DHT22;10979;48.306;9.830;2022-12-19T06:10:35;-2.00;99.90
21635;DHT22;10979;48.306;9.830;2022-12-19T06:13:01;-2.00;99.90
21635;DHT22;10979;48.306;9.830;2022-12-19T06:15:27;-2.00;99.90
21635;DHT22;10979;48.306;9.830;2022-12-19T06:17:53;-2.00;99.90
21635;DHT22;10979;48.306;9.830;2022-12-19T06:20:19;-2.00;99.90
21635;DHT22;10979;48.306;9.830;2022-12-19T06:22:44;-1.90;99.90
21635;DHT22;10979;48.306;9.830;2022-12-19T06:25:12;-1.90;99.90
21635;DHT22;10979;48.306;9.830;2022-12-19T06:27:38;-2.00;99.90
21635;DHT22;10979;48.306;9.830;2022-12-19T06:30:04;-1.90;99.90
21635;DHT22;10979;48.306;9.830;2022-12-19T06:32:30;-1.80;99.90
21635;DHT22;10979;48.306;9.830;2022-12-19T06:34:55;-1.90;99.90
21635;DHT22;10979;48.306;9.830;2022-12-19T06:37:21;-1.90;99.90
21635;DHT22;10979;48.306;9.830;2022-12-19T06:39:46;-1.90;99.90
21635;DHT22;10979;48.306;9.830;2022-12-19T06:42:12;-1.90;99.90
21635;DHT22;10979;48.306;9.830;2022-12-19T06:44:51;-1.90;99.90
21635;DHT22;10979;48.306;9.830;2022-12-19T06:47:17;-1.90;99.90
21635;DHT22;10979;48.306;9.830;2022-12-19T06:49:42;-1.90;99.90
21635;DHT22;10979;48.306;9.830;2022-12-19T06:52:11;-1.80;99.90
21635;DHT22;10979;48.306;9.830;2022-12-19T06:54:36;-1.80;99.90
21635;DHT22;10979;48.306;9.830;2022-12-19T06:57:02;-1.80;99.90
21635;DHT22;10979;48.306;9.830;2022-12-19T06:59:27;-1.80;99.90
21635;DHT22;10979;48.306;9.830;2022-12-19T07:02:17;-1.80;99.90
21635;DHT22;10979;48.306;9.830;2022-12-19T07:04:46;-1.80;99.90
21635;DHT22;10979;48.306;9.830;2022-12-19T07:07:12;-1.70;99.90
21635;DHT22;10979;48.306;9.830;2022-12-19T07:09:38;-1.60;99.90
21635;DHT22;10979;48.306;9.830;2022-12-19T07:12:03;-1.60;99.90
21635;DHT22;10979;48.306;9.830;2022-12-19T07:14:31;-1.60;99.90
21635;DHT22;10979;48.306;9.830;2022-12-19T07:16:58;-1.60;99.90
21635;DHT22;10979;48.306;9.830;2022-12-19T07:19:25;-1.50;99.90
21635;DHT22;10979;48.306;9.830;2022-12-19T07:21:51;-1.50;99.90
21635;DHT22;10979;48.306;9.830;2022-12-19T07:24:17;-1.40;99.90
21635;DHT22;10979;48.306;9.830;2022-12-19T07:26:42;-1.40;99.90
21635;DHT22;10979;48.306;9.830;2022-12-19T07:29:09;-1.40;99.90
21635;DHT22;10979;48.306;9.830;2022-12-19T07:31:35;-1.30;99.90
21635;DHT22;10979;48.306;9.830;2022-12-19T07:34:01;-1.40;99.90
21635;DHT22;10979;48.306;9.830;2022-12-19T07:36:26;-1.30;99.90
21635;DHT22;10979;48.306;9.830;2022-12-19T07:38:52;-1.20;99.90
21635;DHT22;10979;48.306;9.830;2022-12-19T07:41:17;-1.10;99.90
21635;DHT22;10979;48.306;9.830;2022-12-19T07:43:43;-1.20;99.90
21635;DHT22;10979;48.306;9.830;2022-12-19T07:46:10;-1.10;99.90
21635;DHT22;10979;48.306;9.830;2022-12-19T07:48:35;-1.10;99.90
21635;DHT22;10979;48.306;9.830;2022-12-19T07:51:01;-1.10;99.90
21635;DHT22;10979;48.306;9.830;2022-12-19T07:53:30;-1.10;99.90
21635;DHT22;10979;48.306;9.830;2022-12-19T07:55:55;-1.00;99.90
21635;DHT22;10979;48.306;9.830;2022-12-19T07:58:21;-1.00;99.90
21635;DHT22;10979;48.306;9.830;2022-12-19T08:00:57;-0.90;99.90
21635;DHT22;10979;48.306;9.830;2022-12-19T08:03:23;-0.80;99.90
21635;DHT22;10979;48.306;9.830;2022-12-19T08:05:49;-0.70;99.90
21635;DHT22;10979;48.306;9.830;2022-12-19T08:08:15;-0.60;99.90
21635;DHT22;10979;48.306;9.830;2022-12-19T08:10:40;-0.60;99.90
21635;DHT22;10979;48.306;9.830;2022-12-19T08:13:06;-0.60;99.90
21635;DHT22;10979;48.306;9.830;2022-12-19T08:15:32;-0.50;99.90
21635;DHT22;10979;48.306;9.830;2022-12-19T08:17:57;-0.40;99.90
21635;DHT22;10979;48.306;9.830;2022-12-19T08:20:23;-0.30;99.90
21635;DHT22;10979;48.306;9.830;2022-12-19T08:22:48;-0.30;99.90
21635;DHT22;10979;48.306;9.830;2022-12-19T08:25:14;-0.20;99.90
21635;DHT22;10979;48.306;9.830;2022-12-19T08:27:40;-0.20;99.90
21635;DHT22;10979;48.306;9.830;2022-12-19T08:30:07;-0.10;99.90
21635;DHT22;10979;48.306;9.830;2022-12-19T08:32:33;-0.20;99.90
21635;DHT22;10979;48.306;9.830;2022-12-19T08:34:58;-0.20;99.90
21635;DHT22;10979;48.306;9.830;2022-12-19T08:37:24;-0.10;99.90
21635;DHT22;10979;48.306;9.830;2022-12-19T08:39:50;0.00;99.90
21635;DHT22;10979;48.306;9.830;2022-12-19T08:42:15;0.00;99.90
21635;DHT22;10979;48.306;9.830;2022-12-19T08:44:41;0.10;99.90
21635;DHT22;10979;48.306;9.830;2022-12-19T08:47:06;0.30;99.90
21635;DHT22;10979;48.306;9.830;2022-12-19T08:49:32;0.20;99.90
21635;DHT22;10979;48.306;9.830;2022-12-19T08:51:58;0.20;99.90
21635;DHT22;10979;48.306;9.830;2022-12-19T08:54:23;0.20;99.90
21635;DHT22;10979;48.306;9.830;2022-12-19T08:56:52;0.20;99.90
21635;DHT22;10979;48.306;9.830;2022-12-19T08:59:17;0.40;99.90
21635;DHT22;10979;48.306;9.830;2022-12-19T09:01:43;0.50;99.90
21635;DHT22;10979;48.306;9.830;2022-12-19T09:04:09;0.60;99.90
21635;DHT22;10979;48.306;9.830;2022-12-19T09:06:34;0.60;99.90
21635;DHT22;10979;48.306;9.830;2022-12-19T09:09:02;0.70;99.90
21635;DHT22;10979;48.306;9.830;2022-12-19T09:11:28;0.80;99.90
21635;DHT22;10979;48.306;9.830;2022-12-19T09:13:55;0.70;99.90
21635;DHT22;10979;48.306;9.830;2022-12-19T09:16:22;0.80;99.90
21635;DHT22;10979;48.306;9.830;2022-12-19T09:18:50;0.80;99.90
21635;DHT22;10979;48.306;9.830;2022-12-19T09:21:17;0.80;99.90
21635;DHT22;10979;48.306;9.830;2022-12-19T09:23:52;0.80;99.90
21635;DHT22;10979;48.306;9.830;2022-12-19T09:26:19;0.90;99.90
21635;DHT22;10979;48.306;9.830;2022-12-19T09:28:46;0.90;99.90
21635;DHT22;10979;48.306;9.830;2022-12-19T09:31:17;0.90;99.90
21635;DHT22;10979;48.306;9.830;2022-12-19T09:33:43;1.10;99.90
21635;DHT22;10979;48.306;9.830;2022-12-19T09:36:15;1.10;99.90
21635;DHT22;10979;48.306;9.830;2022-12-19T09:38:41;0.90;99.90
21635;DHT22;10979;48.306;9.830;2022-12-19T09:41:53;0.90;99.90
21635;DHT22;10979;48.306;9.830;2022-12-19T09:47:00;1.00;99.90
21635;DHT22;10979;48.306;9.830;2022-12-19T09:49:37;1.20;99.90
21635;DHT22;10979;48.306;9.830;2022-12-19T09:52:25;1.40;99.90
21635;DHT22;10979;48.306;9.830;2022-12-19T09:54:59;1.50;99.90
21635;DHT22;10979;48.306;9.830;2022-12-19T10:00:21;1.40;99.90
21635;DHT22;10979;48.306;9.830;2022-12-19T10:03:04;1.40;99.90
21635;DHT22;10979;48.306;9.830;2022-12-19T10:05:40;1.60;99.90
21635;DHT22;10979;48.306;9.830;2022-12-19T10:08:27;2.10;99.90
21635;DHT22;10979;48.306;9.830;2022-12-19T10:11:09;2.00;99.90
21635;DHT22;10979;48.306;9.830;2022-12-19T10:14:16;2.20;99.90
21635;DHT22;10979;48.306;9.830;2022-12-19T10:17:16;2.40;99.90
21635;DHT22;10979;48.306;9.830;2022-12-19T10:22:32;1.70;99.90
21635;DHT22;10979;48.306;9.830;2022-12-19T10:25:09;1.30;99.90
21635;DHT22;10979;48.306;9.830;2022-12-19T10:27:50;1.60;99.90
21635;DHT22;10979;48.306;9.830;2022-12-19T10:30:19;1.50;99.90
21635;DHT22;10979;48.306;9.830;2022-12-19T10:35:33;1.70;99.90
21635;DHT22;10979;48.306;9.830;2022-12-19T10:40:32;2.00;99.90
21635;DHT22;10979;48.306;9.830;2022-12-19T10:43:26;2.00;99.90
21635;DHT22;10979;48.306;9.830;2022-12-19T10:45:59;2.00;99.90
21635;DHT22;10979;48.306;9.830;2022-12-19T10:48:27;2.10;99.90
21635;DHT22;10979;48.306;9.830;2022-12-19T10:50:52;2.40;99.90
21635;DHT22;10979;48.306;9.830;2022-12-19T10:53:28;2.50;99.90
21635;DHT22;10979;48.306;9.830;2022-12-19T10:55:59;2.60;99.90
21635;DHT22;10979;48.306;9.830;2022-12-19T10:58:36;2.70;99.90
21635;DHT22;10979;48.306;9.830;2022-12-19T11:01:19;2.80;99.90
21635;DHT22;10979;48.306;9.830;2022-12-19T11:03:50;2.40;99.90
21635;DHT22;10979;48.306;9.830;2022-12-19T11:06:50;2.30;99.90
21635;DHT22;10979;48.306;9.830;2022-12-19T11:09:28;2.30;99.90
21635;DHT22;10979;48.306;9.830;2022-12-19T11:14:33;2.10;99.90
21635;DHT22;10979;48.306;9.830;2022-12-19T11:16:59;2.20;99.90
21635;DHT22;10979;48.306;9.830;2022-12-19T11:19:34;2.10;99.90
21635;DHT22;10979;48.306;9.830;2022-12-19T11:22:04;2.00;99.90
21635;DHT22;10979;48.306;9.830;2022-12-19T11:24:36;2.20;99.90
21635;DHT22;10979;48.306;9.830;2022-12-19T11:27:37;2.20;99.90
21635;DHT22;10979;48.306;9.830;2022-12-19T11:32:45;2.10;99.90
21635;DHT22;10979;48.306;9.830;2022-12-19T11:35:23;2.30;99.90
21635;DHT22;10979;48.306;9.830;2022-12-19T11:37:57;2.20;99.90
21635;DHT22;10979;48.306;9.830;2022-12-19T11:43:14;2.00;99.90
21635;DHT22;10979;48.306;9.830;2022-12-19T11:48:44;2.30;99.90
21635;DHT22;10979;48.306;9.830;2022-12-19T11:51:31;2.40;99.90
21635;DHT22;10979;48.306;9.830;2022-12-19T11:54:08;2.60;99.90
21635;DHT22;10979;48.306;9.830;2022-12-19T11:56:38;2.60;99.90
21635;DHT22;10979;48.306;9.830;2022-12-19T11:59:18;2.60;99.90
21635;DHT22;10979;48.306;9.830;2022-12-19T12:05:07;2.80;99.90
21635;DHT22;10979;48.306;9.830;2022-12-19T12:07:40;3.10;99.90
21635;DHT22;10979;48.306;9.830;2022-12-19T12:10:17;2.80;99.90
21635;DHT22;10979;48.306;9.830;2022-12-19T12:13:05;2.80;99.90
21635;DHT22;10979;48.306;9.830;2022-12-19T12:15:55;3.10;99.90
21635;DHT22;10979;48.306;9.830;2022-12-19T12:18:38;3.20;99.90
21635;DHT22;10979;48.306;9.830;2022-12-19T12:21:25;3.00;99.90
21635;DHT22;10979;48.306;9.830;2022-12-19T12:26:48;3.00;99.90
21635;DHT22;10979;48.306;9.830;2022-12-19T12:29:24;2.70;99.90
21635;DHT22;10979;48.306;9.830;2022-12-19T12:32:25;2.70;99.90
21635;DHT22;10979;48.306;9.830;2022-12-19T12:40:38;2.80;99.90
21635;DHT22;10979;48.306;9.830;2022-12-19T12:43:24;2.90;99.90
21635;DHT22;10979;48.306;9.830;2022-12-19T12:49:33;2.80;99.90
21635;DHT22;10979;48.306;9.830;2022-12-19T12:52:01;2.90;99.90
21635;DHT22;10979;48.306;9.830;2022-12-19T12:54:36;2.90;99.90
21635;DHT22;10979;48.306;9.830;2022-12-19T12:57:03;2.70;99.90
21635;DHT22;10979;48.306;9.830;2022-12-19T12:59:30;2.70;99.90
21635;DHT22;10979;48.306;9.830;2022-12-19T13:02:06;2.70;99.90
21635;DHT22;10979;48.306;9.830;2022-12-19T13:04:42;2.60;99.90
21635;DHT22;10979;48.306;9.830;2022-12-19T13:10:06;2.50;99.90
21635;DHT22;10979;48.306;9.830;2022-12-19T13:12:53;2.30;99.90
21635;DHT22;10979;48.306;9.830;2022-12-19T13:23:04;2.10;99.90
21635;DHT22;10979;48.306;9.830;2022-12-19T13:36:49;1.70;99.90
21635;DHT22;10979;48.306;9.830;2022-12-19T13:39:31;1.70;99.90
21635;DHT22;10979;48.306;9.830;2022-12-19T13:44:48;1.30;99.90
21635;DHT22;10979;48.306;9.830;2022-12-19T13:47:15;1.50;99.90
21635;DHT22;10979;48.306;9.830;2022-12-19T13:49:42;1.60;99.90
21635;DHT22;10979;48.306;9.830;2022-12-19T13:52:10;1.50;99.90
21635;DHT22;10979;48.306;9.830;2022-12-19T13:54:49;1.40;99.90
21635;DHT22;10979;48.306;9.830;2022-12-19T13:57:30;1.30;99.90
21635;DHT22;10979;48.306;9.830;2022-12-19T14:00:01;1.20;99.90
21635;DHT22;10979;48.306;9.830;2022-12-19T14:02:33;1.20;99.90
21635;DHT22;10979;48.306;9.830;2022-12-19T14:05:00;1.20;99.90
21635;DHT22;10979;48.306;9.830;2022-12-19T14:07:28;1.00;99.90
21635;DHT22;10979;48.306;9.830;2022-12-19T14:09:56;1.00;99.90
21635;DHT22;10979;48.306;9.830;2022-12-19T14:12:26;0.90;99.90
21635;DHT22;10979;48.306;9.830;2022-12-19T14:15:37;0.90;99.90
21635;DHT22;10979;48.306;9.830;2022-12-19T14:18:29;0.80;99.90
21635;DHT22;10979;48.306;9.830;2022-12-19T14:21:15;0.60;99.90
21635;DHT22;10979;48.306;9.830;2022-12-19T14:23:41;0.50;99.90
21635;DHT22;10979;48.306;9.830;2022-12-19T14:26:12;0.50;99.90
21635;DHT22;10979;48.306;9.830;2022-12-19T14:31:05;0.50;99.90
21635;DHT22;10979;48.306;9.830;2022-12-19T14:33:41;0.30;99.90
21635;DHT22;10979;48.306;9.830;2022-12-19T14:36:07;0.30;99.90
21635;DHT22;10979;48.306;9.830;2022-12-19T14:38:33;0.20;99.90
21635;DHT22;10979;48.306;9.830;2022-12-19T14:40:59;0.10;99.90
21635;DHT22;10979;48.306;9.830;2022-12-19T14:43:28;0.00;99.90
21635;DHT22;10979;48.306;9.830;2022-12-19T14:51:19;-0.10;99.90
21635;DHT22;10979;48.306;9.830;2022-12-19T14:56:46;-0.30;99.90
21635;DHT22;10979;48.306;9.830;2022-12-19T15:02:00;-0.40;99.90
21635;DHT22;10979;48.306;9.830;2022-12-19T15:04:30;-0.60;99.90
21635;DHT22;10979;48.306;9.830;2022-12-19T15:06:59;-0.70;99.90
21635;DHT22;10979;48.306;9.830;2022-12-19T15:09:26;-0.70;99.90
21635;DHT22;10979;48.306;9.830;2022-12-19T15:12:01;-0.80;99.90
21635;DHT22;10979;48.306;9.830;2022-12-19T15:14:48;-0.90;99.90
21635;DHT22;10979;48.306;9.830;2022-12-19T15:17:20;-1.00;99.90
21635;DHT22;10979;48.306;9.830;2022-12-19T15:19:47;-1.10;99.90
21635;DHT22;10979;48.306;9.830;2022-12-19T15:22:13;-1.20;99.90
21635;DHT22;10979;48.306;9.830;2022-12-19T15:24:38;-1.20;99.90
21635;DHT22;10979;48.306;9.830;2022-12-19T15:27:04;-1.20;99.90
21635;DHT22;10979;48.306;9.830;2022-12-19T15:29:29;-1.30;99.90
21635;DHT22;10979;48.306;9.830;2022-12-19T15:31:57;-1.40;99.90
21635;DHT22;10979;48.306;9.830;2022-12-19T15:34:24;-1.40;99.90
21635;DHT22;10979;48.306;9.830;2022-12-19T15:36:51;-1.50;99.90
21635;DHT22;10979;48.306;9.830;2022-12-19T15:39:17;-1.50;99.90
21635;DHT22;10979;48.306;9.830;2022-12-19T15:41:45;-1.60;99.90
21635;DHT22;10979;48.306;9.830;2022-12-19T15:44:33;-1.70;99.90
21635;DHT22;10979;48.306;9.830;2022-12-19T15:47:00;-1.80;99.90
21635;DHT22;10979;48.306;9.830;2022-12-19T15:49:26;-1.80;99.90
21635;DHT22;10979;48.306;9.830;2022-12-19T15:51:52;-1.80;99.90
21635;DHT22;10979;48.306;9.830;2022-12-19T15:54:18;-1.80;99.90
21635;DHT22;10979;48.306;9.830;2022-12-19T15:56:52;-1.80;99.90
21635;DHT22;10979;48.306;9.830;2022-12-19T15:59:29;-2.00;99.90
21635;DHT22;10979;48.306;9.830;2022-12-19T16:01:56;-2.00;99.90
21635;DHT22;10979;48.306;9.830;2022-12-19T16:04:24;-2.00;99.90
21635;DHT22;10979;48.306;9.830;2022-12-19T16:06:49;-2.00;99.90
21635;DHT22;10979;48.306;9.830;2022-12-19T16:09:26;-2.10;99.90
21635;DHT22;10979;48.306;9.830;2022-12-19T16:11:53;-2.00;99.90
21635;DHT22;10979;48.306;9.830;2022-12-19T16:14:20;-2.10;99.90
21635;DHT22;10979;48.306;9.830;2022-12-19T16:16:51;-2.10;99.90
21635;DHT22;10979;48.306;9.830;2022-12-19T16:19:25;-2.10;99.90
21635;DHT22;10979;48.306;9.830;2022-12-19T16:21:51;-2.20;99.90
21635;DHT22;10979;48.306;9.830;2022-12-19T16:24:16;-2.30;99.90
21635;DHT22;10979;48.306;9.830;2022-12-19T16:26:50;-2.30;99.90
21635;DHT22;10979;48.306;9.830;2022-12-19T16:29:28;-2.20;99.90
21635;DHT22;10979;48.306;9.830;2022-12-19T16:31:54;-2.20;99.90
21635;DHT22;10979;48.306;9.830;2022-12-19T16:34:22;-2.40;99.90
21635;DHT22;10979;48.306;9.830;2022-12-19T16:36:48;-2.30;99.90
21635;DHT22;10979;48.306;9.830;2022-12-19T16:39:14;-2.30;99.90
21635;DHT22;10979;48.306;9.830;2022-12-19T16:41:41;-2.40;99.90
21635;DHT22;10979;48.306;9.830;2022-12-19T16:44:18;-2.30;99.90
21635;DHT22;10979;48.306;9.830;2022-12-19T16:46:44;-2.30;99.90
21635;DHT22;10979;48.306;9.830;2022-12-19T16:49:16;-2.20;99.90
21635;DHT22;10979;48.306;9.830;2022-12-19T16:51:42;-2.10;99.90
21635;DHT22;10979;48.306;9.830;2022-12-19T16:54:10;-2.10;99.90
21635;DHT22;10979;48.306;9.830;2022-12-19T16:56:47;-2.10;99.90
21635;DHT22;10979;48.306;9.830;2022-12-19T16:59:21;-2.10;99.90
21635;DHT22;10979;48.306;9.830;2022-12-19T17:01:48;-2.20;99.90
21635;DHT22;10979;48.306;9.830;2022-12-19T17:04:22;-2.30;99.90
21635;DHT22;10979;48.306;9.830;2022-12-19T17:06:49;-2.20;99.90
21635;DHT22;10979;48.306;9.830;2022-12-19T17:09:24;-2.40;99.90
21635;DHT22;10979;48.306;9.830;2022-12-19T17:11:56;-2.30;99.90
21635;DHT22;10979;48.306;9.830;2022-12-19T17:14:25;-2.20;99.90
21635;DHT22;10979;48.306;9.830;2022-12-19T17:16:52;-2.20;99.90
21635;DHT22;10979;48.306;9.830;2022-12-19T17:19:36;-2.20;99.90
21635;DHT22;10979;48.306;9.830;2022-12-19T17:22:10;-2.20;99.90
21635;DHT22;10979;48.306;9.830;2022-12-19T17:24:36;-2.10;99.90
21635;DHT22;10979;48.306;9.830;2022-12-19T17:27:02;-2.10;99.90
21635;DHT22;10979;48.306;9.830;2022-12-19T17:29:28;-2.30;99.90
21635;DHT22;10979;48.306;9.830;2022-12-19T17:31:53;-2.40;99.90
21635;DHT22;10979;48.306;9.830;2022-12-19T17:34:30;-2.40;99.90
21635;DHT22;10979;48.306;9.830;2022-12-19T17:36:58;-2.50;99.90
21635;DHT22;10979;48.306;9.830;2022-12-19T17:39:26;-2.50;99.90